sensor_id;sensor_type;location;lat;lon;timestamp;temperature;humidity
22185;DHT22;11258;52.516;13.318;2022-11-03T00:01:09;9.30;99.90
22185;DHT22;11258;52.516;13.318;2022-11-03T00:03:35;9.30;99.90
22185;DHT22;11258;52.516;13.318;2022-11-03T00:06:01;9.30;99.90
22185;DHT22;11258;52.516;13.318;2022-11-03T00:08:35;9.20;99.90
22185;DHT22;11258;52.516;13.318;2022-11-03T00:11:05;9.10;99.90
22185;DHT22;11258;52.516;13.318;2022-11-03T00:13:31;9.20;99.90
22185;DHT22;11258;52.516;13.318;2022-11-03T00:15:56;9.20;99.90
22185;DHT22;11258;52.516;13.318;2022-11-03T00:18:22;9.20;99.90
22185;DHT22;11258;52.516;13.318;2022-11-03T00:20:58;9.10;99.90
22185;DHT22;11258;52.516;13.318;2022-11-03T00:23:25;9.10;99.90
22185;DHT22;11258;52.516;13.318;2022-11-03T00:25:51;9.10;99.90
22185;DHT22;11258;52.516;13.318;2022-11-03T00:28:17;9.00;99.90
22185;DHT22;11258;52.516;13.318;2022-11-03T00:30:42;9.00;99.90
22185;DHT22;11258;52.516;13.318;2022-11-03T00:33:08;9.00;99.90
22185;DHT22;11258;52.516;13.318;2022-11-03T00:35:33;9.00;99.90
22185;DHT22;11258;52.516;13.318;2022-11-03T00:37:59;9.00;99.90
22185;DHT22;11258;52.516;13.318;2022-11-03T00:40:24;9.00;99.90
22185;DHT22;11258;52.516;13.318;2022-11-03T00:42:50;9.00;99.90
22185;DHT22;11258;52.516;13.318;2022-11-03T00:45:15;9.00;99.90
22185;DHT22;11258;52.516;13.318;2022-11-03T00:47:41;9.00;99.90
22185;DHT22;11258;52.516;13.318;2022-11-03T00:50:26;9.00;99.90
22185;DHT22;11258;52.516;13.318;2022-11-03T00:52:52;9.00;99.90
22185;DHT22;11258;52.516;13.318;2022-11-03T00:55:18;9.00;99.90
22185;DHT22;11258;52.516;13.318;2022-11-03T00:57:43;9.10;99.90
22185;DHT22;11258;52.516;13.318;2022-11-03T01:00:10;9.10;99.90
22185;DHT22;11258;52.516;13.318;2022-11-03T01:02:36;9.00;99.90
22185;DHT22;11258;52.516;13.318;2022-11-03T01:05:01;9.00;99.90
22185;DHT22;11258;52.516;13.318;2022-11-03T01:07:46;9.00;99.90
22185;DHT22;11258;52.516;13.318;2022-11-03T01:10:11;8.90;99.90
22185;DHT22;11258;52.516;13.318;2022-11-03T01:12:36;8.90;99.90
22185;DHT22;11258;52.516;13.318;2022-11-03T01:15:02;8.90;99.90
22185;DHT22;11258;52.516;13.318;2022-11-03T01:17:28;8.90;99.90
22185;DHT22;11258;52.516;13.318;2022-11-03T01:19:54;8.90;99.90
22185;DHT22;11258;52.516;13.318;2022-11-03T01:22:20;8.80;99.90
22185;DHT22;11258;52.516;13.318;2022-11-03T01:24:46;8.90;99.90
22185;DHT22;11258;52.516;13.318;2022-11-03T01:27:17;8.80;99.90
22185;DHT22;11258;52.516;13.318;2022-11-03T01:29:43;8.80;99.90
22185;DHT22;11258;52.516;13.318;2022-11-03T01:32:09;8.70;99.90
22185;DHT22;11258;52.516;13.318;2022-11-03T01:34:35;8.70;99.90
22185;DHT22;11258;52.516;13.318;2022-11-03T01:37:01;8.70;99.90
22185;DHT22;11258;52.516;13.318;2022-11-03T01:39:26;8.60;99.90
22185;DHT22;11258;52.516;13.318;2022-11-03T01:41:52;8.60;99.90
22185;DHT22;11258;52.516;13.318;2022-11-03T01:46:48;8.50;99.90
22185;DHT22;11258;52.516;13.318;2022-11-03T01:49:18;8.50;99.90
22185;DHT22;11258;52.516;13.318;2022-11-03T01:51:52;8.50;99.90
22185;DHT22;11258;52.516;13.318;2022-11-03T01:54:21;8.40;99.90
22185;DHT22;11258;52.516;13.318;2022-11-03T01:56:47;8.40;99.90
22185;DHT22;11258;52.516;13.318;2022-11-03T01:59:16;8.50;99.90
22185;DHT22;11258;52.516;13.318;2022-11-03T02:01:43;8.40;99.90
22185;DHT22;11258;52.516;13.318;2022-11-03T02:04:15;8.40;99.90
22185;DHT22;11258;52.516;13.318;2022-11-03T02:06:42;8.40;99.90
22185;DHT22;11258;52.516;13.318;2022-11-03T02:09:08;8.40;99.90
22185;DHT22;11258;52.516;13.318;2022-11-03T02:11:35;8.30;99.90
22185;DHT22;11258;52.516;13.318;2022-11-03T02:14:20;8.20;99.90
22185;DHT22;11258;52.516;13.318;2022-11-03T02:16:52;8.20;99.90
22185;DHT22;11258;52.516;13.318;2022-11-03T02:19:45;8.10;99.90
22185;DHT22;11258;52.516;13.318;2022-11-03T02:22:42;8.20;99.90
22185;DHT22;11258;52.516;13.318;2022-11-03T02:25:35;8.20;99.90
22185;DHT22;11258;52.516;13.318;2022-11-03T02:28:03;8.20;99.90
22185;DHT22;11258;52.516;13.318;2022-11-03T02:33:19;8.20;99.90
22185;DHT22;11258;52.516;13.318;2022-11-03T02:35:51;8.10;99.90
22185;DHT22;11258;52.516;13.318;2022-11-03T02:38:19;8.20;99.90
22185;DHT22;11258;52.516;13.318;2022-11-03T02:40:51;8.20;99.90
22185;DHT22;11258;52.516;13.318;2022-11-03T02:43:18;8.20;99.90
22185;DHT22;11258;52.516;13.318;2022-11-03T02:45:46;8.20;99.90
22185;DHT22;11258;52.516;13.318;2022-11-03T02:48:14;8.20;99.90
22185;DHT22;11258;52.516;13.318;2022-11-03T02:50:40;8.10;99.90
22185;DHT22;11258;52.516;13.318;2022-11-03T02:53:08;8.10;99.90
22185;DHT22;11258;52.516;13.318;2022-11-03T03:03:48;8.10;99.90
22185;DHT22;11258;52.516;13.318;2022-11-03T03:06:24;8.00;99.90
22185;DHT22;11258;52.516;13.318;2022-11-03T03:09:04;8.00;99.90
22185;DHT22;11258;52.516;13.318;2022-11-03T03:11:30;8.00;99.90
22185;DHT22;11258;52.516;13.318;2022-11-03T03:14:23;7.90;99.90
22185;DHT22;11258;52.516;13.318;2022-11-03T03:19:40;8.00;99.90
22185;DHT22;11258;52.516;13.318;2022-11-03T03:22:23;8.00;99.90
22185;DHT22;11258;52.516;13.318;2022-11-03T03:24:59;8.00;99.90
22185;DHT22;11258;52.516;13.318;2022-11-03T03:27:26;8.00;99.90
22185;DHT22;11258;52.516;13.318;2022-11-03T03:29:57;8.00;99.90
22185;DHT22;11258;52.516;13.318;2022-11-03T03:32:26;8.00;99.90
22185;DHT22;11258;52.516;13.318;2022-11-03T03:34:53;8.10;99.90
22185;DHT22;11258;52.516;13.318;2022-11-03T03:37:22;8.10;99.90
22185;DHT22;11258;52.516;13.318;2022-11-03T03:39:52;8.00;99.90
22185;DHT22;11258;52.516;13.318;2022-11-03T03:42:20;8.00;99.90
22185;DHT22;11258;52.516;13.318;2022-11-03T03:44:49;8.00;99.90
22185;DHT22;11258;52.516;13.318;2022-11-03T03:47:22;8.00;99.90
22185;DHT22;11258;52.516;13.318;2022-11-03T03:49:49;8.00;99.90
22185;DHT22;11258;52.516;13.318;2022-11-03T03:52:16;8.00;99.90
22185;DHT22;11258;52.516;13.318;2022-11-03T03:54:41;8.00;99.90
22185;DHT22;11258;52.516;13.318;2022-11-03T03:57:11;8.10;99.90
22185;DHT22;11258;52.516;13.318;2022-11-03T03:59:40;8.00;99.90
22185;DHT22;11258;52.516;13.318;2022-11-03T04:02:05;8.00;99.90
22185;DHT22;11258;52.516;13.318;2022-11-03T04:04:32;7.90;99.90
22185;DHT22;11258;52.516;13.318;2022-11-03T04:06:58;7.90;99.90
22185;DHT22;11258;52.516;13.318;2022-11-03T04:09:42;7.90;99.90
22185;DHT22;11258;52.516;13.318;2022-11-03T04:12:08;7.90;99.90
22185;DHT22;11258;52.516;13.318;2022-11-03T04:14:52;8.00;99.90
22185;DHT22;11258;52.516;13.318;2022-11-03T04:17:41;8.00;99.90
22185;DHT22;11258;52.516;13.318;2022-11-03T04:20:26;8.00;99.90
22185;DHT22;11258;52.516;13.318;2022-11-03T04:23:10;8.00;99.90
22185;DHT22;11258;52.516;13.318;2022-11-03T04:25:36;8.00;99.90
22185;DHT22;11258;52.516;13.318;2022-11-03T04:28:09;8.00;99.90
22185;DHT22;11258;52.516;13.318;2022-11-03T04:30:35;8.00;99.90
22185;DHT22;11258;52.516;13.318;2022-11-03T04:33:00;8.00;99.90
22185;DHT22;11258;52.516;13.318;2022-11-03T04:35:27;7.90;99.90
22185;DHT22;11258;52.516;13.318;2022-11-03T04:38:22;7.90;99.90
22185;DHT22;11258;52.516;13.318;2022-11-03T04:40:54;7.90;99.90
22185;DHT22;11258;52.516;13.318;2022-11-03T04:43:22;7.90;99.90
22185;DHT22;11258;52.516;13.318;2022-11-03T04:45:48;7.80;99.90
22185;DHT22;11258;52.516;13.318;2022-11-03T04:48:20;7.90;99.90
22185;DHT22;11258;52.516;13.318;2022-11-03T04:50:46;7.90;99.90
22185;DHT22;11258;52.516;13.318;2022-11-03T04:53:16;7.80;99.90
22185;DHT22;11258;52.516;13.318;2022-11-03T04:55:43;7.90;99.90
22185;DHT22;11258;52.516;13.318;2022-11-03T04:58:28;7.90;99.90
22185;DHT22;11258;52.516;13.318;2022-11-03T05:00:56;7.80;99.90
22185;DHT22;11258;52.516;13.318;2022-11-03T05:03:24;7.80;99.90
22185;DHT22;11258;52.516;13.318;2022-11-03T05:05:51;7.80;99.90
22185;DHT22;11258;52.516;13.318;2022-11-03T05:08:18;7.70;99.90
22185;DHT22;11258;52.516;13.318;2022-11-03T05:10:44;7.70;99.90
22185;DHT22;11258;52.516;13.318;2022-11-03T05:13:30;7.70;99.90
22185;DHT22;11258;52.516;13.318;2022-11-03T05:16:02;7.80;99.90
22185;DHT22;11258;52.516;13.318;2022-11-03T05:18:31;7.70;99.90
22185;DHT22;11258;52.516;13.318;2022-11-03T05:21:07;7.70;99.90
22185;DHT22;11258;52.516;13.318;2022-11-03T05:23:39;7.70;99.90
22185;DHT22;11258;52.516;13.318;2022-11-03T05:26:09;7.60;99.90
22185;DHT22;11258;52.516;13.318;2022-11-03T05:28:47;7.60;99.90
22185;DHT22;11258;52.516;13.318;2022-11-03T05:31:21;7.60;99.90
22185;DHT22;11258;52.516;13.318;2022-11-03T05:33:47;7.60;99.90
22185;DHT22;11258;52.516;13.318;2022-11-03T05:36:19;7.50;99.90
22185;DHT22;11258;52.516;13.318;2022-11-03T05:38:45;7.50;99.90
22185;DHT22;11258;52.516;13.318;2022-11-03T05:41:15;7.50;99.90
22185;DHT22;11258;52.516;13.318;2022-11-03T05:43:42;7.40;99.90
22185;DHT22;11258;52.516;13.318;2022-11-03T05:46:09;7.40;99.90
22185;DHT22;11258;52.516;13.318;2022-11-03T05:48:39;7.30;99.90
22185;DHT22;11258;52.516;13.318;2022-11-03T05:51:21;7.30;99.90
22185;DHT22;11258;52.516;13.318;2022-11-03T05:53:50;7.20;99.90
22185;DHT22;11258;52.516;13.318;2022-11-03T05:56:19;7.30;99.90
22185;DHT22;11258;52.516;13.318;2022-11-03T05:58:47;7.20;99.90
22185;DHT22;11258;52.516;13.318;2022-11-03T06:01:29;7.30;99.90
22185;DHT22;11258;52.516;13.318;2022-11-03T06:03:56;7.30;99.90
22185;DHT22;11258;52.516;13.318;2022-11-03T06:06:27;7.40;99.90
22185;DHT22;11258;52.516;13.318;2022-11-03T06:08:55;7.40;99.90
22185;DHT22;11258;52.516;13.318;2022-11-03T06:11:29;7.40;99.90
22185;DHT22;11258;52.516;13.318;2022-11-03T06:13:57;7.40;99.90
22185;DHT22;11258;52.516;13.318;2022-11-03T06:16:50;7.40;99.90
22185;DHT22;11258;52.516;13.318;2022-11-03T06:19:22;7.40;99.90
22185;DHT22;11258;52.516;13.318;2022-11-03T06:21:52;7.40;99.90
22185;DHT22;11258;52.516;13.318;2022-11-03T06:24:22;7.40;99.90
22185;DHT22;11258;52.516;13.318;2022-11-03T06:26:50;7.40;99.90
22185;DHT22;11258;52.516;13.318;2022-11-03T06:29:18;7.40;99.90
22185;DHT22;11258;52.516;13.318;2022-11-03T06:31:46;7.50;99.90
22185;DHT22;11258;52.516;13.318;2022-11-03T06:34:40;7.50;99.90
22185;DHT22;11258;52.516;13.318;2022-11-03T06:39:47;7.40;99.90
22185;DHT22;11258;52.516;13.318;2022-11-03T06:42:15;7.40;99.90
22185;DHT22;11258;52.516;13.318;2022-11-03T06:44:46;7.60;99.90
22185;DHT22;11258;52.516;13.318;2022-11-03T06:47:21;7.40;99.90
22185;DHT22;11258;52.516;13.318;2022-11-03T06:49:49;7.50;99.90
22185;DHT22;11258;52.516;13.318;2022-11-03T06:52:32;7.50;99.90
22185;DHT22;11258;52.516;13.318;2022-11-03T06:55:25;7.60;99.90
22185;DHT22;11258;52.516;13.318;2022-11-03T06:57:58;8.20;99.90
22185;DHT22;11258;52.516;13.318;2022-11-03T07:00:27;8.00;99.90
22185;DHT22;11258;52.516;13.318;2022-11-03T07:03:09;8.10;99.90
22185;DHT22;11258;52.516;13.318;2022-11-03T07:05:38;8.20;99.90
22185;DHT22;11258;52.516;13.318;2022-11-03T07:08:31;8.90;99.90
22185;DHT22;11258;52.516;13.318;2022-11-03T07:11:15;9.90;99.90
22185;DHT22;11258;52.516;13.318;2022-11-03T07:13:42;11.10;99.90
22185;DHT22;11258;52.516;13.318;2022-11-03T07:18:42;12.60;99.90
22185;DHT22;11258;52.516;13.318;2022-11-03T07:21:34;13.20;99.90
22185;DHT22;11258;52.516;13.318;2022-11-03T07:24:12;13.60;99.90
22185;DHT22;11258;52.516;13.318;2022-11-03T07:26:38;13.90;99.90
22185;DHT22;11258;52.516;13.318;2022-11-03T07:29:04;13.80;99.90
22185;DHT22;11258;52.516;13.318;2022-11-03T07:31:30;13.30;99.90
22185;DHT22;11258;52.516;13.318;2022-11-03T07:33:57;13.10;99.90
22185;DHT22;11258;52.516;13.318;2022-11-03T07:36:25;13.60;99.90
22185;DHT22;11258;52.516;13.318;2022-11-03T07:38:53;13.50;99.90
22185;DHT22;11258;52.516;13.318;2022-11-03T07:41:24;13.60;99.90
22185;DHT22;11258;52.516;13.318;2022-11-03T07:43:56;14.20;99.90
22185;DHT22;11258;52.516;13.318;2022-11-03T07:46:23;14.30;99.90
22185;DHT22;11258;52.516;13.318;2022-11-03T07:51:29;14.50;99.90
22185;DHT22;11258;52.516;13.318;2022-11-03T07:54:07;13.40;99.90
22185;DHT22;11258;52.516;13.318;2022-11-03T07:56:40;12.80;99.90
22185;DHT22;11258;52.516;13.318;2022-11-03T08:01:43;12.30;99.90
22185;DHT22;11258;52.516;13.318;2022-11-03T08:04:15;12.10;99.90
22185;DHT22;11258;52.516;13.318;2022-11-03T08:06:41;12.00;99.90
22185;DHT22;11258;52.516;13.318;2022-11-03T08:09:07;11.70;99.90
22185;DHT22;11258;52.516;13.318;2022-11-03T08:11:32;11.80;99.90
22185;DHT22;11258;52.516;13.318;2022-11-03T08:13:58;11.60;99.90
22185;DHT22;11258;52.516;13.318;2022-11-03T08:16:23;11.40;99.90
22185;DHT22;11258;52.516;13.318;2022-11-03T08:18:49;11.40;99.90
22185;DHT22;11258;52.516;13.318;2022-11-03T08:21:15;11.40;99.90
22185;DHT22;11258;52.516;13.318;2022-11-03T08:23:41;11.70;99.90
22185;DHT22;11258;52.516;13.318;2022-11-03T08:26:07;11.50;99.90
22185;DHT22;11258;52.516;13.318;2022-11-03T08:28:34;11.40;99.90
22185;DHT22;11258;52.516;13.318;2022-11-03T08:30:59;11.70;99.90
22185;DHT22;11258;52.516;13.318;2022-11-03T08:33:33;11.90;99.90
22185;DHT22;11258;52.516;13.318;2022-11-03T08:35:59;11.90;99.90
22185;DHT22;11258;52.516;13.318;2022-11-03T08:38:25;11.90;99.90
22185;DHT22;11258;52.516;13.318;2022-11-03T08:40:52;11.70;99.90
22185;DHT22;11258;52.516;13.318;2022-11-03T08:43:17;11.70;99.90
22185;DHT22;11258;52.516;13.318;2022-11-03T08:45:43;11.70;99.90
22185;DHT22;11258;52.516;13.318;2022-11-03T08:48:08;11.80;99.90
22185;DHT22;11258;52.516;13.318;2022-11-03T08:50:34;11.80;99.90
22185;DHT22;11258;52.516;13.318;2022-11-03T08:53:00;12.20;99.90
22185;DHT22;11258;52.516;13.318;2022-11-03T08:55:25;12.10;99.90
22185;DHT22;11258;52.516;13.318;2022-11-03T08:57:51;11.90;99.90
22185;DHT22;11258;52.516;13.318;2022-11-03T09:00:16;12.20;99.90
22185;DHT22;11258;52.516;13.318;2022-11-03T09:02:45;12.30;99.90
22185;DHT22;11258;52.516;13.318;2022-11-03T09:05:11;12.20;99.90
22185;DHT22;11258;52.516;13.318;2022-11-03T09:07:38;12.30;99.90
22185;DHT22;11258;52.516;13.318;2022-11-03T09:10:06;12.20;99.90
22185;DHT22;11258;52.516;13.318;2022-11-03T09:12:31;12.40;99.90
22185;DHT22;11258;52.516;13.318;2022-11-03T09:14:57;12.20;99.90
22185;DHT22;11258;52.516;13.318;2022-11-03T09:17:23;12.20;99.90
22185;DHT22;11258;52.516;13.318;2022-11-03T09:19:48;12.10;99.90
22185;DHT22;11258;52.516;13.318;2022-11-03T09:22:14;12.10;99.90
22185;DHT22;11258;52.516;13.318;2022-11-03T09:24:39;12.30;99.90
22185;DHT22;11258;52.516;13.318;2022-11-03T09:27:05;12.30;99.90
22185;DHT22;11258;52.516;13.318;2022-11-03T09:29:30;12.40;99.90
22185;DHT22;11258;52.516;13.318;2022-11-03T09:31:56;12.30;99.90
22185;DHT22;11258;52.516;13.318;2022-11-03T09:34:21;12.30;99.90
22185;DHT22;11258;52.516;13.318;2022-11-03T09:36:47;12.30;99.90
22185;DHT22;11258;52.516;13.318;2022-11-03T09:39:12;12.60;99.90
22185;DHT22;11258;52.516;13.318;2022-11-03T09:41:38;13.00;99.90
22185;DHT22;11258;52.516;13.318;2022-11-03T09:44:04;13.10;99.90
22185;DHT22;11258;52.516;13.318;2022-11-03T09:46:30;13.10;99.90
22185;DHT22;11258;52.516;13.318;2022-11-03T09:48:56;12.80;99.90
22185;DHT22;11258;52.516;13.318;2022-11-03T09:51:25;12.60;99.90
22185;DHT22;11258;52.516;13.318;2022-11-03T09:53:51;12.90;99.90
22185;DHT22;11258;52.516;13.318;2022-11-03T09:56:20;13.20;99.90
22185;DHT22;11258;52.516;13.318;2022-11-03T09:58:46;13.20;99.90
22185;DHT22;11258;52.516;13.318;2022-11-03T10:01:12;13.30;99.90
22185;DHT22;11258;52.516;13.318;2022-11-03T10:03:37;13.20;99.90
22185;DHT22;11258;52.516;13.318;2022-11-03T10:06:06;13.20;99.90
22185;DHT22;11258;52.516;13.318;2022-11-03T10:08:33;13.10;99.90
22185;DHT22;11258;52.516;13.318;2022-11-03T10:11:00;13.20;99.90
22185;DHT22;11258;52.516;13.318;2022-11-03T10:13:32;13.10;99.90
22185;DHT22;11258;52.516;13.318;2022-11-03T10:15:59;13.10;99.90
22185;DHT22;11258;52.516;13.318;2022-11-03T10:18:27;13.00;99.90
22185;DHT22;11258;52.516;13.318;2022-11-03T10:20:53;13.10;99.90
22185;DHT22;11258;52.516;13.318;2022-11-03T10:23:18;13.10;99.90
22185;DHT22;11258;52.516;13.318;2022-11-03T10:25:44;13.20;99.90
22185;DHT22;11258;52.516;13.318;2022-11-03T10:33:35;13.20;99.90
22185;DHT22;11258;52.516;13.318;2022-11-03T10:36:03;13.20;99.90
22185;DHT22;11258;52.516;13.318;2022-11-03T10:38:32;13.10;99.90
22185;DHT22;11258;52.516;13.318;2022-11-03T10:43:36;13.10;99.90
22185;DHT22;11258;52.516;13.318;2022-11-03T10:46:10;13.00;99.90
22185;DHT22;11258;52.516;13.318;2022-11-03T10:48:37;13.00;99.90
22185;DHT22;11258;52.516;13.318;2022-11-03T10:51:03;13.10;99.90
22185;DHT22;11258;52.516;13.318;2022-11-03T10:53:29;13.20;99.90
22185;DHT22;11258;52.516;13.318;2022-11-03T10:55:55;13.20;99.90
22185;DHT22;11258;52.516;13.318;2022-11-03T10:58:22;13.20;99.90
22185;DHT22;11258;52.516;13.318;2022-11-03T11:00:47;13.30;99.90
22185;DHT22;11258;52.516;13.318;2022-11-03T11:03:13;13.10;99.90
22185;DHT22;11258;52.516;13.318;2022-11-03T11:05:46;13.10;99.90
22185;DHT22;11258;52.516;13.318;2022-11-03T11:08:13;13.10;99.90
22185;DHT22;11258;52.516;13.318;2022-11-03T11:10:43;13.10;99.90
22185;DHT22;11258;52.516;13.318;2022-11-03T11:15:53;13.20;99.90
22185;DHT22;11258;52.516;13.318;2022-11-03T11:21:01;13.40;99.90
22185;DHT22;11258;52.516;13.318;2022-11-03T11:23:47;13.30;99.90
22185;DHT22;11258;52.516;13.318;2022-11-03T11:26:28;13.10;99.90
22185;DHT22;11258;52.516;13.318;2022-11-03T11:34:40;13.20;99.90
22185;DHT22;11258;52.516;13.318;2022-11-03T11:42:17;13.30;99.90
22185;DHT22;11258;52.516;13.318;2022-11-03T11:52:30;13.20;99.90
22185;DHT22;11258;52.516;13.318;2022-11-03T11:54:55;13.30;99.90
22185;DHT22;11258;52.516;13.318;2022-11-03T11:57:21;13.30;99.90
22185;DHT22;11258;52.516;13.318;2022-11-03T11:59:48;13.30;99.90
22185;DHT22;11258;52.516;13.318;2022-11-03T12:02:22;13.30;99.90
22185;DHT22;11258;52.516;13.318;2022-11-03T12:04:53;13.20;99.90
22185;DHT22;11258;52.516;13.318;2022-11-03T12:07:34;13.20;99.90
22185;DHT22;11258;52.516;13.318;2022-11-03T12:10:16;13.30;99.90
22185;DHT22;11258;52.516;13.318;2022-11-03T12:12:42;13.30;99.90
22185;DHT22;11258;52.516;13.318;2022-11-03T12:18:34;13.40;99.90
22185;DHT22;11258;52.516;13.318;2022-11-03T12:21:01;13.20;99.90
22185;DHT22;11258;52.516;13.318;2022-11-03T12:26:01;13.20;99.90
22185;DHT22;11258;52.516;13.318;2022-11-03T12:28:34;13.30;99.90
22185;DHT22;11258;52.516;13.318;2022-11-03T12:31:00;13.20;99.90
22185;DHT22;11258;52.516;13.318;2022-11-03T12:33:27;13.20;99.90
22185;DHT22;11258;52.516;13.318;2022-11-03T12:35:53;13.20;99.90
22185;DHT22;11258;52.516;13.318;2022-11-03T12:38:19;13.10;99.90
22185;DHT22;11258;52.516;13.318;2022-11-03T12:40:44;13.20;99.90
22185;DHT22;11258;52.516;13.318;2022-11-03T12:43:10;13.20;99.90
22185;DHT22;11258;52.516;13.318;2022-11-03T12:45:35;13.30;99.90
22185;DHT22;11258;52.516;13.318;2022-11-03T12:48:01;13.20;99.90
22185;DHT22;11258;52.516;13.318;2022-11-03T12:50:26;13.30;99.90
22185;DHT22;11258;52.516;13.318;2022-11-03T12:52:52;13.10;99.90
22185;DHT22;11258;52.516;13.318;2022-11-03T12:55:17;13.20;99.90
22185;DHT22;11258;52.516;13.318;2022-11-03T12:57:43;13.30;99.90
22185;DHT22;11258;52.516;13.318;2022-11-03T13:00:10;13.40;99.90
22185;DHT22;11258;52.516;13.318;2022-11-03T13:02:37;13.40;99.90
22185;DHT22;11258;52.516;13.318;2022-11-03T13:05:03;13.30;99.90
22185;DHT22;11258;52.516;13.318;2022-11-03T13:07:29;13.30;99.90
22185;DHT22;11258;52.516;13.318;2022-11-03T13:09:54;13.30;99.90
22185;DHT22;11258;52.516;13.318;2022-11-03T13:12:20;13.10;99.90
22185;DHT22;11258;52.516;13.318;2022-11-03T13:14:59;13.20;99.90
22185;DHT22;11258;52.516;13.318;2022-11-03T13:17:26;13.10;99.90
22185;DHT22;11258;52.516;13.318;2022-11-03T13:19:51;13.00;99.90
22185;DHT22;11258;52.516;13.318;2022-11-03T13:22:17;13.10;99.90
22185;DHT22;11258;52.516;13.318;2022-11-03T13:24:42;13.10;99.90
22185;DHT22;11258;52.516;13.318;2022-11-03T13:27:08;13.10;99.90
22185;DHT22;11258;52.516;13.318;2022-11-03T13:29:34;13.10;99.90
22185;DHT22;11258;52.516;13.318;2022-11-03T13:31:59;13.20;99.90
22185;DHT22;11258;52.516;13.318;2022-11-03T13:34:25;13.20;99.90
22185;DHT22;11258;52.516;13.318;2022-11-03T13:36:50;13.30;99.90
22185;DHT22;11258;52.516;13.318;2022-11-03T13:39:16;13.30;99.90
22185;DHT22;11258;52.516;13.318;2022-11-03T13:41:41;13.40;99.90
22185;DHT22;11258;52.516;13.318;2022-11-03T13:44:07;13.30;99.90
22185;DHT22;11258;52.516;13.318;2022-11-03T13:46:33;13.30;99.90
22185;DHT22;11258;52.516;13.318;2022-11-03T13:48:59;13.30;99.90
22185;DHT22;11258;52.516;13.318;2022-11-03T13:51:24;13.30;99.90
22185;DHT22;11258;52.516;13.318;2022-11-03T13:53:50;13.20;99.90
22185;DHT22;11258;52.516;13.318;2022-11-03T13:56:15;13.30;99.90
22185;DHT22;11258;52.516;13.318;2022-11-03T13:58:41;13.20;99.90
22185;DHT22;11258;52.516;13.318;2022-11-03T14:01:06;13.10;99.90
22185;DHT22;11258;52.516;13.318;2022-11-03T14:03:32;13.10;99.90
22185;DHT22;11258;52.516;13.318;2022-11-03T14:05:58;13.10;99.90
22185;DHT22;11258;52.516;13.318;2022-11-03T14:08:23;13.10;99.90
22185;DHT22;11258;52.516;13.318;2022-11-03T14:10:49;13.10;99.90
22185;DHT22;11258;52.516;13.318;2022-11-03T14:13:14;13.20;99.90
22185;DHT22;11258;52.516;13.318;2022-11-03T14:15:40;13.10;99.90
22185;DHT22;11258;52.516;13.318;2022-11-03T14:18:05;13.10;99.90
22185;DHT22;11258;52.516;13.318;2022-11-03T14:20:31;13.10;99.90
22185;DHT22;11258;52.516;13.318;2022-11-03T14:22:56;13.10;99.90
22185;DHT22;11258;52.516;13.318;2022-11-03T14:25:22;13.00;99.90
22185;DHT22;11258;52.516;13.318;2022-11-03T14:27:47;13.00;99.90
22185;DHT22;11258;52.516;13.318;2022-11-03T14:30:15;13.00;99.90
22185;DHT22;11258;52.516;13.318;2022-11-03T14:32:40;13.10;99.90
22185;DHT22;11258;52.516;13.318;2022-11-03T14:35:06;13.00;99.90
22185;DHT22;11258;52.516;13.318;2022-11-03T14:37:32;13.10;99.90
22185;DHT22;11258;52.516;13.318;2022-11-03T14:39:57;13.10;99.90
22185;DHT22;11258;52.516;13.318;2022-11-03T14:42:23;13.10;99.90
22185;DHT22;11258;52.516;13.318;2022-11-03T14:44:49;13.00;99.90
22185;DHT22;11258;52.516;13.318;2022-11-03T14:47:17;12.90;99.90
22185;DHT22;11258;52.516;13.318;2022-11-03T14:49:43;12.90;99.90
22185;DHT22;11258;52.516;13.318;2022-11-03T14:52:08;12.80;99.90
22185;DHT22;11258;52.516;13.318;2022-11-03T14:54:35;12.80;99.90
22185;DHT22;11258;52.516;13.318;2022-11-03T14:57:01;12.70;99.90
22185;DHT22;11258;52.516;13.318;2022-11-03T14:59:26;12.70;99.90
22185;DHT22;11258;52.516;13.318;2022-11-03T15:01:53;12.60;99.90
22185;DHT22;11258;52.516;13.318;2022-11-03T15:04:19;12.60;99.90
22185;DHT22;11258;52.516;13.318;2022-11-03T15:06:45;12.60;99.90
22185;DHT22;11258;52.516;13.318;2022-11-03T15:09:11;12.60;99.90
22185;DHT22;11258;52.516;13.318;2022-11-03T15:11:39;12.60;99.90
22185;DHT22;11258;52.516;13.318;2022-11-03T15:14:04;12.50;99.90
22185;DHT22;11258;52.516;13.318;2022-11-03T15:16:30;12.50;99.90
22185;DHT22;11258;52.516;13.318;2022-11-03T15:18:56;12.50;99.90
22185;DHT22;11258;52.516;13.318;2022-11-03T15:21:24;12.50;99.90
22185;DHT22;11258;52.516;13.318;2022-11-03T15:23:50;12.50;99.90
22185;DHT22;11258;52.516;13.318;2022-11-03T15:26:15;12.40;99.90
22185;DHT22;11258;52.516;13.318;2022-11-03T15:28:41;12.40;99.90
22185;DHT22;11258;52.516;13.318;2022-11-03T15:31:07;12.40;99.90
22185;DHT22;11258;52.516;13.318;2022-11-03T15:33:32;12.30;99.90
22185;DHT22;11258;52.516;13.318;2022-11-03T15:35:58;12.30;99.90
22185;DHT22;11258;52.516;13.318;2022-11-03T15:38:24;12.30;99.90
22185;DHT22;11258;52.516;13.318;2022-11-03T15:40:49;12.30;99.90
22185;DHT22;11258;52.516;13.318;2022-11-03T15:43:15;12.30;99.90
22185;DHT22;11258;52.516;13.318;2022-11-03T15:45:40;12.20;99.90
22185;DHT22;11258;52.516;13.318;2022-11-03T15:48:06;12.20;99.90
22185;DHT22;11258;52.516;13.318;2022-11-03T15:50:32;12.10;99.90
22185;DHT22;11258;52.516;13.318;2022-11-03T15:52:58;12.10;99.90
22185;DHT22;11258;52.516;13.318;2022-11-03T15:55:24;12.10;99.90
22185;DHT22;11258;52.516;13.318;2022-11-03T15:57:50;12.10;99.90
22185;DHT22;11258;52.516;13.318;2022-11-03T16:00:16;12.00;99.90
22185;DHT22;11258;52.516;13.318;2022-11-03T16:02:44;12.00;99.90
22185;DHT22;11258;52.516;13.318;2022-11-03T16:05:10;12.00;99.90
22185;DHT22;11258;52.516;13.318;2022-11-03T16:07:36;12.00;99.90
22185;DHT22;11258;52.516;13.318;2022-11-03T16:10:02;12.10;99.90
22185;DHT22;11258;52.516;13.318;2022-11-03T16:12:27;12.00;99.90
22185;DHT22;11258;52.516;13.318;2022-11-03T16:14:53;12.10;99.90
22185;DHT22;11258;52.516;13.318;2022-11-03T16:17:19;12.00;99.90
22185;DHT22;11258;52.516;13.318;2022-11-03T16:19:48;12.00;99.90
22185;DHT22;11258;52.516;13.318;2022-11-03T16:22:14;12.10;99.90
22185;DHT22;11258;52.516;13.318;2022-11-03T16:24:40;12.00;99.90
22185;DHT22;11258;52.516;13.318;2022-11-03T16:27:08;12.10;99.90
22185;DHT22;11258;52.516;13.318;2022-11-03T16:29:34;12.00;99.90
22185;DHT22;11258;52.516;13.318;2022-11-03T16:31:59;12.00;99.90
22185;DHT22;11258;52.516;13.318;2022-11-03T16:34:25;12.00;99.90
22185;DHT22;11258;52.516;13.318;2022-11-03T16:36:50;12.00;99.90